Terminal Aerodrome Forecast
Issued by NWS

Home | Current Version | Previous Version | Text Only | Print | Product List | Glossary On
Versions: 1 2 3 4 5 6 7 8 9 10 11 12 13 14 15 16 17 18 19 20 21
000
FTUS46 KSEW 210300 AAB
TAFBFI
TAF AMD
KBFI 210344Z 2104/2124 15006KT P6SM VCTS SCT035 BKN060CB
      TEMPO 2104/2105 VRB06KT 5SM SHRA BKN035 BKN060
     FM210500 16006KT P6SM VCSH SCT035 BKN060
     FM210800 16007KT P6SM BKN040
     FM212000 17011KT P6SM BKN040=

USA.gov is the U.S. government's official web portal to all federal, state and local government web resources and services.